Time;durP1;ratioP1;P1;durP2;ratioP2;P2;SDS_P1;SDS_P2;PMS_P1;PMS_P2;Temp;Humidity;BMP_temperature;BMP_pressure;BME280_temperature;BME280_humidity;BME280_pressure;Samples;Min_cycle;Max_cycle;Signal;HPM_P1;HPM_P2
2022/01/01 00:00:08;;;;;;;38.50;34.40;;;7.90;99.90;;;;;;5103311;28;20436;-44
2022/01/01 00:02:35;;;;;;;54.93;47.40;;;7.90;99.90;;;;;;5139245;28;20428;-43
2022/01/01 00:05:00;;;;;;;86.53;74.47;;;8.00;99.90;;;;;;5138243;28;20881;-43
2022/01/01 00:07:26;;;;;;;77.80;69.27;;;8.00;99.90;;;;;;5138214;28;20432;-44
2022/01/01 00:09:52;;;;;;;80.10;67.97;;;7.90;99.90;;;;;;5138409;28;20178;-44
2022/01/01 00:12:18;;;;;;;79.47;70.70;;;7.90;99.90;;;;;;5141181;27;20181;-44
2022/01/01 00:14:44;;;;;;;81.60;73.00;;;7.80;99.90;;;;;;5140915;27;20432;-44
2022/01/01 00:17:10;;;;;;;68.70;61.40;;;7.80;99.90;;;;;;5140550;27;20424;-42
2022/01/01 00:19:36;;;;;;;57.07;49.73;;;7.80;99.90;;;;;;5140149;27;20436;-44
2022/01/01 00:22:02;;;;;;;100.03;64.30;;;7.70;99.90;;;;;;5140370;27;20432;-44
2022/01/01 00:24:28;;;;;;;66.97;49.20;;;7.70;99.90;;;;;;5140714;27;20638;-44
2022/01/01 00:26:54;;;;;;;62.43;48.43;;;7.80;99.90;;;;;;5140643;27;20500;-45
2022/01/01 00:29:22;;;;;;;50.90;44.20;;;7.70;99.90;;;;;;5123728;27;20547;-44
2022/01/01 00:31:52;;;;;;;38.00;32.47;;;7.70;99.90;;;;;;5142513;27;20450;-45
2022/01/01 00:34:18;;;;;;;44.07;39.33;;;7.90;99.90;;;;;;5142133;27;20451;-45
2022/01/01 00:36:43;;;;;;;43.70;38.27;;;8.40;99.90;;;;;;5142699;27;20419;-42
2022/01/01 00:39:09;;;;;;;42.33;35.43;;;8.80;99.90;;;;;;5123812;27;20190;-43
2022/01/01 00:41:37;;;;;;;39.03;35.03;;;9.20;99.90;;;;;;5141398;27;20179;-41
2022/01/01 00:44:04;;;;;;;49.47;39.07;;;9.60;99.90;;;;;;5122688;27;20218;-43
2022/01/01 00:46:30;;;;;;;40.87;35.97;;;9.90;99.90;;;;;;5140726;27;20440;-44
2022/01/01 00:48:56;;;;;;;84.77;47.27;;;10.10;99.90;;;;;;5121656;27;20427;-44
2022/01/01 00:51:22;;;;;;;67.07;43.90;;;10.00;99.90;;;;;;5140200;27;20700;-44
2022/01/01 00:53:48;;;;;;;65.07;41.57;;;9.80;99.50;;;;;;5141370;27;20274;-44
2022/01/01 00:56:14;;;;;;;50.50;42.60;;;9.50;98.90;;;;;;5141581;27;20435;-44
2022/01/01 00:58:39;;;;;;;51.23;39.43;;;9.20;98.50;;;;;;5142227;27;20682;-43
2022/01/01 01:01:05;;;;;;;43.90;38.43;;;8.90;98.70;;;;;;5141444;27;20183;-48
2022/01/01 01:03:31;;;;;;;40.87;35.83;;;8.70;98.90;;;;;;5123319;27;20187;-44
2022/01/01 01:05:59;;;;;;;39.77;33.60;;;8.50;99.20;;;;;;5106035;27;20657;-44
2022/01/01 01:08:26;;;;;;;40.87;35.17;;;8.30;99.40;;;;;;5122771;27;20607;-42
2022/01/01 01:10:52;;;;;;;38.27;33.47;;;8.10;99.70;;;;;;5140986;27;20726;-44
2022/01/01 01:13:20;;;;;;;37.43;33.20;;;7.90;99.90;;;;;;5141525;27;20413;-44
2022/01/01 01:15:46;;;;;;;38.73;34.50;;;7.80;99.90;;;;;;5141720;27;20443;-44
2022/01/01 01:18:13;;;;;;;46.77;41.77;;;7.70;99.90;;;;;;5141373;27;20428;-44
2022/01/01 01:20:41;;;;;;;45.47;38.50;;;7.60;99.90;;;;;;5142112;27;20774;-44
2022/01/01 01:23:08;;;;;;;51.77;39.80;;;7.50;99.90;;;;;;5139287;27;20465;-44
2022/01/01 01:25:40;;;;;;;47.83;39.37;;;7.40;99.90;;;;;;5140720;27;20504;-44
2022/01/01 01:28:08;;;;;;;42.27;32.87;;;7.30;99.90;;;;;;5140893;27;20410;-44
2022/01/01 01:30:37;;;;;;;39.03;31.73;;;7.20;99.90;;;;;;5141223;27;20518;-44
2022/01/01 01:33:07;;;;;;;37.30;30.73;;;7.20;99.90;;;;;;5123133;27;20409;-44
2022/01/01 01:35:33;;;;;;;43.10;33.73;;;7.20;99.90;;;;;;5141159;27;20444;-48
2022/01/01 01:37:59;;;;;;;42.63;33.93;;;7.20;99.90;;;;;;5141480;27;20409;-44
2022/01/01 01:40:25;;;;;;;39.87;32.57;;;7.20;99.90;;;;;;5123055;27;20524;-44
2022/01/01 01:42:50;;;;;;;40.57;31.30;;;7.10;99.90;;;;;;5141200;27;20178;-44
2022/01/01 01:45:20;;;;;;;36.97;29.10;;;7.10;99.90;;;;;;5140736;27;20487;-44
2022/01/01 01:47:50;;;;;;;27.87;22.53;;;7.10;99.90;;;;;;5140499;27;20170;-45
2022/01/01 01:50:18;;;;;;;28.17;22.03;;;7.10;99.90;;;;;;5140479;27;20419;-44
2022/01/01 01:52:50;;;;;;;23.07;20.67;;;7.20;99.90;;;;;;5140482;27;20462;-44
2022/01/01 01:55:15;;;;;;;19.57;17.50;;;7.20;99.90;;;;;;5140523;27;20497;-43
2022/01/01 01:57:42;;;;;;;19.60;17.50;;;7.30;99.90;;;;;;5139796;27;20703;-44
2022/01/01 02:02:57;;;;;;;19.60;14.73;;;7.30;99.90;;;;;;5140378;27;20411;-44
2022/01/01 02:05:23;;;;;;;15.77;13.80;;;7.40;99.90;;;;;;5139843;27;20899;-44
2022/01/01 02:07:50;;;;;;;14.70;12.50;;;7.40;99.90;;;;;;5140548;27;20181;-44
2022/01/01 02:10:17;;;;;;;13.73;11.70;;;7.40;99.90;;;;;;5140306;27;20501;-44
2022/01/01 02:12:48;;;;;;;14.57;11.37;;;7.50;99.90;;;;;;5140287;27;20416;-43
2022/01/01 02:18:13;;;;;;;23.43;14.63;;;7.50;99.90;;;;;;5139298;27;20519;-44
2022/01/01 02:20:39;;;;;;;23.47;17.10;;;7.50;99.90;;;;;;5139671;27;20890;-43
2022/01/01 02:23:05;;;;;;;21.13;16.50;;;7.50;99.90;;;;;;5139547;27;20258;-42
2022/01/01 02:25:32;;;;;;;22.60;17.50;;;7.50;99.90;;;;;;5139502;27;21122;-44
2022/01/01 02:27:57;;;;;;;23.33;16.03;;;7.40;99.90;;;;;;5139706;27;20437;-44
2022/01/01 02:30:23;;;;;;;17.93;15.10;;;7.40;99.90;;;;;;5140310;27;20565;-44
2022/01/01 02:32:51;;;;;;;20.20;17.30;;;7.30;99.90;;;;;;5140116;27;20176;-44
2022/01/01 02:35:18;;;;;;;24.03;18.80;;;7.20;99.90;;;;;;5139048;27;20425;-42
2022/01/01 02:37:44;;;;;;;20.10;17.80;;;7.20;99.90;;;;;;5138062;27;20467;-44
2022/01/01 02:40:12;;;;;;;22.67;18.13;;;7.10;99.90;;;;;;5137730;27;20700;-43
2022/01/01 02:42:39;;;;;;;22.10;18.60;;;7.10;99.90;;;;;;5137748;27;20441;-44
2022/01/01 02:45:08;;;;;;;21.90;18.90;;;7.10;99.90;;;;;;5138363;27;20746;-44
2022/01/01 02:47:34;;;;;;;24.53;21.07;;;7.10;99.90;;;;;;5138953;27;20450;-44
2022/01/01 02:50:03;;;;;;;26.40;22.57;;;7.20;99.90;;;;;;5138601;27;20826;-44
2022/01/01 02:52:29;;;;;;;24.37;21.30;;;7.20;99.90;;;;;;5139013;27;20435;-44
2022/01/01 02:54:54;;;;;;;22.87;20.40;;;7.20;99.90;;;;;;5139810;27;20455;-44
2022/01/01 02:57:22;;;;;;;23.03;18.20;;;7.20;99.90;;;;;;5120530;27;20180;-42
2022/01/01 02:59:48;;;;;;;21.97;18.50;;;7.30;99.90;;;;;;5120001;27;20175;-42
2022/01/01 03:02:14;;;;;;;22.10;17.97;;;7.40;99.90;;;;;;5138433;27;20420;-44
2022/01/01 03:04:40;;;;;;;20.67;18.47;;;7.40;99.90;;;;;;5138888;27;20911;-43
2022/01/01 03:07:06;;;;;;;21.93;18.13;;;7.30;99.90;;;;;;5120667;27;20484;-44
2022/01/01 03:09:35;;;;;;;19.53;16.63;;;7.40;99.90;;;;;;5138955;27;20175;-45
2022/01/01 03:12:02;;;;;;;18.70;15.57;;;7.40;99.90;;;;;;5139003;27;20553;-43
2022/01/01 03:14:28;;;;;;;19.43;16.53;;;7.40;99.90;;;;;;5121528;27;20409;-43
2022/01/01 03:16:55;;;;;;;18.93;15.20;;;7.50;99.90;;;;;;5120707;27;20437;-44
2022/01/01 03:19:21;;;;;;;21.93;16.03;;;7.50;99.90;;;;;;5138776;27;20270;-44
2022/01/01 03:21:47;;;;;;;16.80;15.00;;;7.60;99.90;;;;;;5139096;27;20504;-44
2022/01/01 03:24:12;;;;;;;18.20;16.03;;;7.60;99.90;;;;;;5138255;27;20217;-43
2022/01/01 03:26:40;;;;;;;17.73;15.50;;;7.60;99.90;;;;;;5119564;27;20170;-41
2022/01/01 03:29:06;;;;;;;18.37;15.67;;;7.70;99.90;;;;;;5138006;27;20182;-43
2022/01/01 03:31:31;;;;;;;16.87;14.23;;;7.70;99.90;;;;;;5138978;27;20497;-43
2022/01/01 03:33:58;;;;;;;16.67;14.70;;;7.70;99.90;;;;;;5139393;27;20224;-41
2022/01/01 03:36:25;;;;;;;19.57;17.57;;;7.80;99.90;;;;;;5138570;27;20250;-43
2022/01/01 03:38:50;;;;;;;19.43;16.40;;;7.80;99.90;;;;;;5138976;27;20844;-43
2022/01/01 03:41:16;;;;;;;18.17;16.13;;;7.90;99.90;;;;;;5138937;27;20421;-42
2022/01/01 03:43:42;;;;;;;16.70;15.00;;;7.90;99.90;;;;;;5137950;27;20189;-45
2022/01/01 03:46:07;;;;;;;17.70;14.70;;;8.00;99.90;;;;;;5136704;27;20194;-43
2022/01/01 03:48:33;;;;;;;16.50;14.30;;;8.00;99.90;;;;;;5137746;27;20187;-41
2022/01/01 03:50:58;;;;;;;17.30;15.50;;;8.00;99.90;;;;;;5136917;28;20177;-43
2022/01/01 03:53:25;;;;;;;16.30;14.40;;;8.00;99.90;;;;;;5136716;28;20704;-41
2022/01/01 03:55:51;;;;;;;16.10;14.37;;;8.10;99.90;;;;;;5137467;28;20178;-43
2022/01/01 03:58:17;;;;;;;16.80;13.27;;;8.10;99.90;;;;;;5120247;28;20844;-42
2022/01/01 04:00:42;;;;;;;14.47;12.97;;;8.10;99.90;;;;;;5138290;28;20461;-42
2022/01/01 04:03:10;;;;;;;12.90;11.50;;;8.20;99.90;;;;;;5138456;28;20190;-41
2022/01/01 04:05:37;;;;;;;13.13;10.90;;;8.20;99.90;;;;;;5138492;28;20283;-42
2022/01/01 04:08:04;;;;;;;13.53;11.10;;;8.30;99.90;;;;;;5137990;28;20682;-43
2022/01/01 04:10:31;;;;;;;11.23;8.73;;;8.30;99.90;;;;;;5137695;28;20719;-43
2022/01/01 04:12:58;;;;;;;11.80;10.60;;;8.30;99.90;;;;;;5137443;28;20448;-43
2022/01/01 04:15:24;;;;;;;9.93;8.80;;;8.40;99.90;;;;;;5137450;28;20488;-43
2022/01/01 04:17:50;;;;;;;12.73;10.47;;;8.40;99.90;;;;;;5138091;28;20428;-43
2022/01/01 04:20:16;;;;;;;10.80;8.90;;;8.50;99.90;;;;;;5137995;28;20446;-43
2022/01/01 04:22:41;;;;;;;11.40;8.30;;;8.50;99.90;;;;;;5137635;28;20177;-42
2022/01/01 04:25:10;;;;;;;10.37;9.27;;;8.50;99.90;;;;;;5137261;28;20270;-41
2022/01/01 04:27:35;;;;;;;10.57;8.70;;;8.50;99.90;;;;;;5137096;28;20183;-43
2022/01/01 04:30:01;;;;;;;8.87;7.77;;;8.60;99.90;;;;;;5137596;28;20409;-43
2022/01/01 04:32:26;;;;;;;8.37;7.47;;;8.60;99.90;;;;;;5137189;28;20188;-43
2022/01/01 04:34:52;;;;;;;8.43;7.37;;;8.70;99.90;;;;;;5137642;28;20247;-43
2022/01/01 04:37:19;;;;;;;9.63;7.17;;;8.70;99.90;;;;;;5137826;28;20213;-43
2022/01/01 04:39:45;;;;;;;8.83;7.50;;;8.70;99.90;;;;;;5138569;28;20181;-42
2022/01/01 04:42:10;;;;;;;9.83;7.90;;;8.70;99.90;;;;;;5138543;28;20439;-41
2022/01/01 04:44:36;;;;;;;10.87;7.57;;;8.70;99.90;;;;;;5138286;28;20282;-43
2022/01/01 04:47:02;;;;;;;8.27;7.30;;;8.70;99.90;;;;;;5119761;28;20637;-43
2022/01/01 04:49:27;;;;;;;8.63;7.53;;;8.60;99.90;;;;;;5138398;28;20467;-43
2022/01/01 04:51:53;;;;;;;10.07;8.07;;;8.60;99.90;;;;;;5137590;28;20217;-42
2022/01/01 04:54:19;;;;;;;8.90;7.50;;;8.60;99.90;;;;;;5137986;28;20183;-41
2022/01/01 04:56:47;;;;;;;7.97;6.73;;;8.50;99.90;;;;;;5138379;27;20175;-42
2022/01/01 04:59:14;;;;;;;8.90;8.00;;;8.50;99.90;;;;;;5125428;27;20347;-41
2022/01/01 05:01:40;;;;;;;7.30;6.40;;;8.50;99.90;;;;;;5120524;28;20451;-43
2022/01/01 05:04:06;;;;;;;7.17;6.13;;;8.40;99.90;;;;;;5121750;28;20696;-45
2022/01/01 05:06:32;;;;;;;8.53;6.90;;;8.50;99.90;;;;;;5120789;28;20564;-45
2022/01/01 05:08:58;;;;;;;9.00;7.23;;;8.50;99.90;;;;;;5121245;28;20425;-45
2022/01/01 05:11:24;;;;;;;9.27;7.20;;;8.50;99.90;;;;;;5121185;28;20414;-45
2022/01/01 05:13:52;;;;;;;8.40;6.90;;;8.40;99.90;;;;;;5120231;28;20444;-45
2022/01/01 05:16:19;;;;;;;9.37;7.23;;;8.40;99.90;;;;;;5118603;28;20577;-45
2022/01/01 05:18:45;;;;;;;9.30;7.47;;;8.40;99.70;;;;;;5118407;28;20830;-45
2022/01/01 05:21:11;;;;;;;6.87;6.17;;;8.30;99.80;;;;;;5118684;28;20706;-45
2022/01/01 05:23:37;;;;;;;8.60;7.27;;;8.20;99.70;;;;;;5118872;28;20426;-45
2022/01/01 05:26:03;;;;;;;10.87;7.50;;;8.20;99.80;;;;;;5118733;28;20475;-44
2022/01/01 05:28:29;;;;;;;7.90;6.70;;;8.10;99.70;;;;;;5101108;28;20186;-45
2022/01/01 05:30:54;;;;;;;7.10;6.07;;;8.10;99.80;;;;;;5120496;28;20864;-44
2022/01/01 05:33:22;;;;;;;9.83;7.53;;;8.10;99.80;;;;;;5120733;28;20483;-44
2022/01/01 05:35:48;;;;;;;10.17;7.77;;;8.00;99.90;;;;;;5120645;28;20580;-45
2022/01/01 05:38:13;;;;;;;10.53;8.23;;;7.90;99.90;;;;;;5120547;28;20517;-44
2022/01/01 05:40:39;;;;;;;8.00;6.30;;;7.80;99.90;;;;;;5119566;28;20451;-44
2022/01/01 05:43:12;;;;;;;8.43;7.37;;;7.80;99.90;;;;;;5119350;28;20577;-45
2022/01/01 05:45:38;;;;;;;9.63;7.33;;;7.80;99.90;;;;;;5119263;28;20783;-45
2022/01/01 05:48:04;;;;;;;7.03;6.33;;;7.70;99.90;;;;;;5119329;28;20421;-45
2022/01/01 05:50:29;;;;;;;8.23;7.00;;;7.70;99.90;;;;;;5119809;28;20482;-45
2022/01/01 05:52:55;;;;;;;8.93;8.00;;;7.60;99.90;;;;;;5126543;27;20196;-45
2022/01/01 05:55:20;;;;;;;8.20;6.70;;;7.50;99.90;;;;;;5139975;27;20194;-45
2022/01/01 05:57:46;;;;;;;9.00;7.30;;;7.50;99.90;;;;;;5141138;27;20198;-45
2022/01/01 06:00:13;;;;;;;8.73;7.70;;;7.40;99.90;;;;;;5140476;27;20180;-45
2022/01/01 06:02:42;;;;;;;8.60;7.43;;;7.40;99.90;;;;;;5120221;28;20184;-45
2022/01/01 06:05:08;;;;;;;10.47;8.23;;;7.30;99.90;;;;;;5119765;28;20818;-45
2022/01/01 06:07:33;;;;;;;13.17;9.30;;;7.30;99.90;;;;;;5100430;28;20438;-45
2022/01/01 06:09:59;;;;;;;12.13;10.17;;;7.20;99.90;;;;;;5119655;28;20436;-45
2022/01/01 06:12:25;;;;;;;12.43;11.13;;;7.10;99.90;;;;;;5140214;27;20179;-45
2022/01/01 06:14:53;;;;;;;14.97;11.87;;;7.00;99.90;;;;;;5122298;27;20831;-46
2022/01/01 06:17:19;;;;;;;15.50;13.60;;;7.00;99.90;;;;;;5140212;27;20842;-46
2022/01/01 06:19:45;;;;;;;19.40;14.30;;;6.90;99.90;;;;;;5139651;27;20432;-45
2022/01/01 06:22:10;;;;;;;16.80;14.10;;;6.80;99.90;;;;;;5139808;27;20894;-45
2022/01/01 06:24:36;;;;;;;19.40;14.53;;;6.80;99.90;;;;;;5140313;27;20221;-45
2022/01/01 06:27:02;;;;;;;18.47;14.73;;;6.80;99.90;;;;;;5140546;27;20533;-45
2022/01/01 06:29:28;;;;;;;14.87;13.33;;;6.70;99.90;;;;;;5140093;27;20230;-48
2022/01/01 06:31:53;;;;;;;14.57;13.00;;;6.70;99.90;;;;;;5140365;27;20401;-45
2022/01/01 06:34:19;;;;;;;17.17;13.37;;;6.70;99.90;;;;;;5139301;27;20190;-45
2022/01/01 06:36:44;;;;;;;17.77;13.53;;;6.70;99.90;;;;;;5139382;27;20171;-45
2022/01/01 06:39:12;;;;;;;15.60;12.67;;;6.70;99.90;;;;;;5138741;27;20269;-45
2022/01/01 06:41:38;;;;;;;16.67;13.40;;;6.80;99.90;;;;;;5119023;28;20176;-45
2022/01/01 06:44:06;;;;;;;15.97;13.10;;;6.90;99.90;;;;;;5117852;28;20915;-45
2022/01/01 06:46:32;;;;;;;15.10;11.80;;;6.90;99.90;;;;;;5117567;28;20182;-45
2022/01/01 06:48:57;;;;;;;14.47;12.57;;;6.90;99.90;;;;;;5118365;28;20422;-45
2022/01/01 06:51:23;;;;;;;13.93;11.30;;;7.00;99.90;;;;;;5117874;28;20332;-45
2022/01/01 06:53:48;;;;;;;13.23;10.73;;;7.10;99.90;;;;;;5099711;28;20180;-45
2022/01/01 06:56:14;;;;;;;11.00;9.87;;;7.10;99.90;;;;;;5099917;28;20192;-45
2022/01/01 06:58:40;;;;;;;11.40;9.80;;;7.20;99.90;;;;;;5118575;28;20452;-45
2022/01/01 07:01:06;;;;;;;12.03;10.30;;;7.20;99.90;;;;;;5123954;27;20193;-45
2022/01/01 07:03:31;;;;;;;11.97;10.77;;;7.30;99.90;;;;;;5139201;27;20175;-45
2022/01/01 07:05:57;;;;;;;10.50;9.40;;;7.30;99.90;;;;;;5139114;27;20893;-45
2022/01/01 07:08:23;;;;;;;10.10;9.03;;;7.30;99.90;;;;;;5139401;27;20529;-45
2022/01/01 07:10:48;;;;;;;10.97;9.40;;;7.30;99.90;;;;;;5139449;27;20250;-45
2022/01/01 07:13:15;;;;;;;11.90;10.33;;;7.40;99.90;;;;;;5139323;27;20172;-45
2022/01/01 07:15:40;;;;;;;12.07;9.90;;;7.40;99.90;;;;;;5138873;27;20485;-45
2022/01/01 07:18:09;;;;;;;10.70;8.97;;;7.40;99.90;;;;;;5138380;27;20421;-45
2022/01/01 07:20:35;;;;;;;13.30;8.80;;;7.50;99.90;;;;;;5138836;27;20195;-45
2022/01/01 07:23:01;;;;;;;9.77;7.90;;;7.50;99.90;;;;;;5139194;27;20477;-45
2022/01/01 07:25:27;;;;;;;8.97;8.07;;;7.50;99.90;;;;;;5138737;27;20545;-45
2022/01/01 07:27:52;;;;;;;7.60;6.40;;;7.50;99.90;;;;;;5138784;27;20412;-44
2022/01/01 07:30:18;;;;;;;7.83;6.77;;;7.60;99.90;;;;;;5139226;27;20444;-45
2022/01/01 07:32:45;;;;;;;9.17;5.80;;;7.70;99.90;;;;;;5139190;27;20243;-45
2022/01/01 07:35:12;;;;;;;8.70;6.97;;;7.80;99.90;;;;;;5137489;27;20186;-45
2022/01/01 07:37:39;;;;;;;8.10;6.53;;;7.80;99.90;;;;;;5118428;28;20421;-45
2022/01/01 07:40:07;;;;;;;9.63;6.83;;;7.80;99.90;;;;;;5120906;27;20604;-46
2022/01/01 07:42:32;;;;;;;8.80;6.83;;;7.90;99.90;;;;;;5127614;27;20460;-46
2022/01/01 07:44:59;;;;;;;7.90;6.40;;;7.90;99.90;;;;;;5117988;28;20999;-46
2022/01/01 07:47:28;;;;;;;5.53;5.00;;;7.90;99.90;;;;;;5118030;28;20180;-46
2022/01/01 07:49:53;;;;;;;6.67;5.30;;;8.00;99.90;;;;;;5118132;28;20428;-46
2022/01/01 07:52:20;;;;;;;7.90;6.23;;;8.10;99.90;;;;;;5100632;28;20693;-46
2022/01/01 07:54:46;;;;;;;5.90;5.30;;;8.30;99.90;;;;;;5118285;28;20198;-46
2022/01/01 07:57:11;;;;;;;7.40;6.13;;;8.50;99.90;;;;;;5118230;28;20819;-46
2022/01/01 07:59:37;;;;;;;8.60;6.53;;;8.70;99.90;;;;;;5118312;28;20410;-46
2022/01/01 08:02:03;;;;;;;8.20;5.80;;;8.90;99.90;;;;;;5117623;28;20186;-46
2022/01/01 08:04:28;;;;;;;7.20;5.30;;;9.20;99.60;;;;;;5118145;28;20228;-46
2022/01/01 08:06:54;;;;;;;6.30;5.70;;;9.60;99.10;;;;;;5117674;28;20304;-46
2022/01/01 08:09:19;;;;;;;6.00;5.33;;;9.90;98.40;;;;;;5117453;28;20165;-46
2022/01/01 08:11:45;;;;;;;6.67;5.90;;;10.30;96.50;;;;;;5121502;28;20176;-46
2022/01/01 08:14:11;;;;;;;5.67;5.07;;;10.70;95.50;;;;;;5125720;28;20182;-46
2022/01/01 08:16:56;;;;;;;5.77;5.13;;;11.10;94.20;;;;;;5117296;28;20186;-46
2022/01/01 08:19:22;;;;;;;5.43;4.33;;;11.50;93.70;;;;;;5118174;28;20581;-46
2022/01/01 08:21:48;;;;;;;5.27;4.77;;;11.90;93.20;;;;;;5117816;28;20421;-46
2022/01/01 08:24:13;;;;;;;4.93;4.43;;;12.30;92.00;;;;;;5117735;28;20456;-46
2022/01/01 08:26:39;;;;;;;7.57;5.80;;;12.80;91.50;;;;;;5117571;28;20175;-46
2022/01/01 08:29:04;;;;;;;6.40;5.77;;;13.20;90.80;;;;;;5116066;28;20539;-46
2022/01/01 08:31:30;;;;;;;6.47;5.90;;;13.50;90.10;;;;;;5117210;28;20233;-46
2022/01/01 08:33:56;;;;;;;6.00;5.40;;;14.00;88.90;;;;;;5120706;28;20401;-46
2022/01/01 08:36:22;;;;;;;5.60;4.93;;;14.40;87.10;;;;;;5120363;28;20183;-46
2022/01/01 08:38:48;;;;;;;6.27;5.40;;;14.80;85.20;;;;;;5119944;28;20202;-46
2022/01/01 08:41:13;;;;;;;5.80;5.00;;;15.20;82.20;;;;;;5120660;28;20420;-46
2022/01/01 08:43:39;;;;;;;5.63;4.77;;;15.40;78.20;;;;;;5121709;28;20190;-46
2022/01/01 08:46:05;;;;;;;5.90;4.90;;;15.40;77.10;;;;;;5105354;28;20522;-46
2022/01/01 08:48:30;;;;;;;5.00;4.47;;;15.70;76.40;;;;;;5128825;27;20175;-46
2022/01/01 08:50:56;;;;;;;5.80;4.90;;;16.10;75.90;;;;;;5120356;28;20201;-46
2022/01/01 08:53:21;;;;;;;4.53;4.00;;;16.60;75.20;;;;;;5120532;28;20174;-46
2022/01/01 08:55:48;;;;;;;6.47;5.00;;;17.20;73.50;;;;;;5120231;28;20596;-47
2022/01/01 08:58:13;;;;;;;4.50;4.10;;;17.70;69.00;;;;;;5120220;28;20527;-46
2022/01/01 09:00:40;;;;;;;4.60;4.20;;;17.80;66.70;;;;;;5121068;28;20587;-46
2022/01/01 09:03:06;;;;;;;5.73;5.13;;;18.40;67.00;;;;;;5121355;28;20832;-46
2022/01/01 09:05:32;;;;;;;4.83;4.33;;;19.10;64.30;;;;;;5119834;28;20553;-46
2022/01/01 09:07:58;;;;;;;5.30;4.80;;;19.80;62.40;;;;;;5119968;28;20194;-46
2022/01/01 09:10:23;;;;;;;5.30;4.40;;;20.70;59.40;;;;;;5101745;28;20201;-46
2022/01/01 09:12:49;;;;;;;4.73;4.33;;;21.30;57.00;;;;;;5119461;28;20414;-47
2022/01/01 09:15:17;;;;;;;5.33;4.80;;;22.00;55.20;;;;;;5120187;28;20204;-46
2022/01/01 09:17:43;;;;;;;5.07;4.57;;;22.50;52.60;;;;;;5120735;28;20186;-47
2022/01/01 09:20:09;;;;;;;5.30;4.80;;;23.00;51.50;;;;;;5129804;27;20535;-46
2022/01/01 09:22:34;;;;;;;6.93;5.57;;;23.70;50.60;;;;;;5141537;27;20176;-45
2022/01/01 09:25:00;;;;;;;5.37;4.90;;;24.30;49.20;;;;;;5141359;27;20521;-45
2022/01/01 09:27:25;;;;;;;5.80;5.30;;;24.80;47.50;;;;;;5141238;27;20213;-45
2022/01/01 09:29:54;;;;;;;5.53;5.03;;;24.90;46.70;;;;;;5140898;27;20646;-45
2022/01/01 09:32:22;;;;;;;6.47;5.40;;;25.60;45.60;;;;;;5141447;27;20180;-47
2022/01/01 09:34:48;;;;;;;6.47;5.77;;;26.30;44.40;;;;;;5140371;27;20426;-47
2022/01/01 09:37:13;;;;;;;5.43;4.80;;;26.80;43.00;;;;;;5140398;27;20484;-47
2022/01/01 09:39:39;;;;;;;5.80;5.30;;;27.00;41.60;;;;;;5137000;27;20168;-47
2022/01/01 09:42:05;;;;;;;5.90;5.40;;;27.40;41.30;;;;;;5128311;27;20168;-47
2022/01/01 09:44:36;;;;;;;5.93;5.43;;;27.80;40.70;;;;;;5111595;27;20594;-47
2022/01/01 09:47:02;;;;;;;5.73;5.23;;;28.30;39.70;;;;;;5130842;27;20505;-47
2022/01/01 09:49:27;;;;;;;5.13;4.73;;;28.70;39.00;;;;;;5106135;28;20528;-47
2022/01/01 09:51:53;;;;;;;5.57;5.07;;;29.10;38.10;;;;;;5130313;27;20207;-47
2022/01/01 09:54:18;;;;;;;5.30;4.90;;;29.50;37.60;;;;;;5118347;28;20173;-47
2022/01/01 09:56:44;;;;;;;5.33;4.87;;;29.50;37.30;;;;;;5117745;28;20174;-47
2022/01/01 09:59:13;;;;;;;5.30;4.90;;;29.80;36.90;;;;;;5118686;27;20198;-47
2022/01/01 10:01:38;;;;;;;5.30;4.90;;;30.20;36.30;;;;;;5118251;28;20167;-47
2022/01/01 10:04:12;;;;;;;5.00;4.60;;;30.20;36.20;;;;;;5099244;28;20408;-47
2022/01/01 10:06:38;;;;;;;5.97;5.37;;;30.60;35.70;;;;;;5116434;28;20320;-47
2022/01/01 10:09:07;;;;;;;5.03;4.63;;;30.80;35.00;;;;;;5098862;28;20523;-47
2022/01/01 10:11:33;;;;;;;5.20;4.70;;;31.00;34.70;;;;;;5117854;28;20674;-49
2022/01/01 10:13:59;;;;;;;5.33;4.83;;;31.00;34.70;;;;;;5118129;28;20734;-47
2022/01/01 10:16:25;;;;;;;4.77;4.37;;;31.00;34.60;;;;;;5100707;28;20386;-47
2022/01/01 10:18:53;;;;;;;6.10;5.60;;;31.10;34.50;;;;;;5101605;28;20646;-47
2022/01/01 10:21:24;;;;;;;5.30;4.80;;;30.80;34.70;;;;;;5120393;28;20386;-47
2022/01/01 10:23:52;;;;;;;4.90;4.50;;;30.80;34.70;;;;;;5119352;28;20422;-47
2022/01/01 10:29:16;;;;;;;5.43;4.93;;;31.00;34.60;;;;;;5119174;28;20495;-47
2022/01/01 10:32:06;;;;;;;5.10;4.27;;;30.90;34.70;;;;;;5119219;28;20411;-47
2022/01/01 10:34:34;;;;;;;4.93;4.53;;;30.90;34.80;;;;;;5119216;28;20411;-47
2022/01/01 10:37:00;;;;;;;4.50;4.20;;;30.50;35.00;;;;;;5118785;28;20393;-47
2022/01/01 10:39:27;;;;;;;6.23;5.20;;;30.40;35.60;;;;;;5118922;28;20540;-44
2022/01/01 10:41:59;;;;;;;4.23;3.93;;;30.30;36.70;;;;;;5118389;28;20439;-45
2022/01/01 10:44:31;;;;;;;5.07;4.60;;;30.30;36.80;;;;;;5116627;28;20860;-45
2022/01/01 10:46:59;;;;;;;5.00;4.60;;;30.40;35.80;;;;;;5116142;28;20432;-45
2022/01/01 10:52:28;;;;;;;4.10;3.47;;;30.00;35.50;;;;;;5116277;28;20959;-45
2022/01/01 10:54:56;;;;;;;4.33;3.93;;;29.50;36.00;;;;;;5116129;28;21028;-45
2022/01/01 10:57:35;;;;;;;4.07;3.77;;;29.40;36.70;;;;;;5117198;28;20415;-45
2022/01/01 11:00:07;;;;;;;4.47;4.07;;;29.20;37.00;;;;;;5117380;28;20421;-45
2022/01/01 11:02:34;;;;;;;4.33;3.30;;;29.70;36.70;;;;;;5117624;28;20532;-46
2022/01/01 11:05:00;;;;;;;4.80;3.43;;;30.10;36.20;;;;;;5117418;28;20521;-49
2022/01/01 11:07:28;;;;;;;3.20;2.90;;;30.30;36.00;;;;;;5117381;28;20862;-46
2022/01/01 11:09:56;;;;;;;2.60;2.40;;;30.30;36.30;;;;;;5117214;28;20306;-47
2022/01/01 11:12:23;;;;;;;3.70;2.83;;;30.50;36.50;;;;;;5117558;28;20448;-46
2022/01/01 11:14:49;;;;;;;3.20;2.60;;;30.90;36.00;;;;;;5118148;28;20407;-46
2022/01/01 11:17:16;;;;;;;3.93;2.80;;;31.40;35.90;;;;;;5100169;28;20696;-46
2022/01/01 11:19:42;;;;;;;2.93;2.40;;;32.00;35.40;;;;;;5118572;28;20177;-46
2022/01/01 11:22:09;;;;;;;2.80;2.57;;;32.40;34.90;;;;;;5118582;28;20412;-46
2022/01/01 11:24:38;;;;;;;3.00;1.87;;;32.80;35.10;;;;;;5118291;28;20212;-47
2022/01/01 11:27:05;;;;;;;2.47;2.27;;;32.90;34.80;;;;;;5116889;28;20447;-47
2022/01/01 11:29:32;;;;;;;2.60;2.30;;;33.30;34.20;;;;;;5116269;28;20417;-47
2022/01/01 11:32:00;;;;;;;4.13;2.60;;;33.10;33.90;;;;;;5098221;28;20412;-46
2022/01/01 11:34:28;;;;;;;3.87;2.33;;;32.60;34.20;;;;;;5099825;28;20386;-47
2022/01/01 11:36:53;;;;;;;2.27;2.07;;;32.70;34.50;;;;;;5117242;28;20934;-47
2022/01/01 11:39:22;;;;;;;2.30;1.80;;;32.10;34.70;;;;;;5118019;28;20418;-47
2022/01/01 11:41:48;;;;;;;2.33;1.87;;;32.10;35.00;;;;;;5117891;28;20178;-46
2022/01/01 11:44:34;;;;;;;2.10;1.50;;;32.00;34.90;;;;;;5098901;28;20544;-47
2022/01/01 11:47:07;;;;;;;2.43;1.93;;;32.30;35.00;;;;;;5099565;28;20408;-47
2022/01/01 11:49:33;;;;;;;2.70;1.93;;;32.90;34.40;;;;;;5099543;28;20507;-47
2022/01/01 11:52:01;;;;;;;2.70;2.50;;;33.40;33.60;;;;;;5117738;28;20425;-47
2022/01/01 11:54:31;;;;;;;3.33;2.20;;;33.60;33.20;;;;;;5118003;28;20555;-47
2022/01/01 11:57:16;;;;;;;4.10;3.00;;;33.20;33.40;;;;;;5098097;28;20441;-47
2022/01/01 11:59:46;;;;;;;2.53;2.33;;;32.90;33.50;;;;;;5117968;28;20434;-47
2022/01/01 12:02:18;;;;;;;2.13;1.90;;;33.00;34.10;;;;;;5117592;28;20413;-47
2022/01/01 12:04:45;;;;;;;3.03;2.13;;;33.00;33.80;;;;;;5116545;28;20424;-47
2022/01/01 12:07:20;;;;;;;2.37;1.43;;;32.70;34.20;;;;;;5118308;28;20480;-46
2022/01/01 12:09:57;;;;;;;2.27;1.60;;;32.30;34.40;;;;;;5122198;28;20468;-46
2022/01/01 12:12:44;;;;;;;1.63;1.40;;;31.50;35.10;;;;;;5122303;27;20422;-46
2022/01/01 12:15:32;;;;;;;1.80;1.43;;;31.10;35.40;;;;;;5121659;28;20436;-46
2022/01/01 12:18:26;;;;;;;2.30;1.60;;;31.10;35.80;;;;;;5120517;28;20578;-46
2022/01/01 12:20:57;;;;;;;2.47;1.50;;;31.20;35.60;;;;;;5101648;28;20420;-46
2022/01/01 12:23:31;;;;;;;2.80;1.80;;;31.00;35.90;;;;;;5118821;28;20433;-46
2022/01/01 12:25:58;;;;;;;2.53;1.70;;;29.70;36.40;;;;;;5119768;28;20419;-46
2022/01/01 12:28:25;;;;;;;1.73;1.43;;;28.70;37.70;;;;;;5122444;27;20528;-46
2022/01/01 12:30:52;;;;;;;1.80;1.40;;;28.50;38.40;;;;;;5140353;27;20411;-46
2022/01/01 12:33:25;;;;;;;2.57;2.00;;;28.60;38.50;;;;;;5139990;27;20437;-47
2022/01/01 12:35:56;;;;;;;3.40;2.93;;;28.60;38.00;;;;;;5140235;27;20449;-46
2022/01/01 12:38:27;;;;;;;3.43;3.13;;;28.50;37.70;;;;;;5141104;27;20430;-46
2022/01/01 12:41:06;;;;;;;3.57;3.20;;;28.20;37.70;;;;;;5141475;27;20412;-46
2022/01/01 12:43:55;;;;;;;3.60;2.80;;;28.40;37.90;;;;;;5122981;27;20448;-47
2022/01/01 12:46:23;;;;;;;4.30;3.23;;;28.30;38.00;;;;;;5138276;27;20787;-46
2022/01/01 12:48:49;;;;;;;3.57;3.27;;;28.50;37.60;;;;;;5137864;27;20460;-46
2022/01/01 12:51:19;;;;;;;3.20;2.90;;;28.60;37.80;;;;;;5141605;27;20839;-46
2022/01/01 12:53:47;;;;;;;3.50;3.20;;;28.50;37.50;;;;;;5141647;27;20624;-46
2022/01/01 12:56:15;;;;;;;3.37;3.07;;;28.40;37.30;;;;;;5122877;27;20481;-37